sensor_id;sensor_type;location;lat;lon;timestamp;P1;durP1;ratioP1;P2;durP2;ratioP2
62616;SDS011;62539;51.190;6.808;2022-07-30T00:01:49;2.42;;;1.20;;
62616;SDS011;62539;51.190;6.808;2022-07-30T00:04:15;1.42;;;1.33;;
62616;SDS011;62539;51.190;6.808;2022-07-30T00:06:41;2.13;;;1.30;;
62616;SDS011;62539;51.190;6.808;2022-07-30T00:09:07;1.92;;;1.30;;
62616;SDS011;62539;51.190;6.808;2022-07-30T00:11:32;1.70;;;1.45;;
62616;SDS011;62539;51.190;6.808;2022-07-30T00:13:58;1.27;;;1.10;;
62616;SDS011;62539;51.190;6.808;2022-07-30T00:16:24;1.67;;;1.45;;
62616;SDS011;62539;51.190;6.808;2022-07-30T00:18:49;2.35;;;1.30;;
62616;SDS011;62539;51.190;6.808;2022-07-30T00:21:15;1.80;;;1.40;;
62616;SDS011;62539;51.190;6.808;2022-07-30T00:23:40;1.40;;;1.30;;
62616;SDS011;62539;51.190;6.808;2022-07-30T00:26:05;1.70;;;1.27;;
62616;SDS011;62539;51.190;6.808;2022-07-30T00:28:31;1.38;;;1.17;;
62616;SDS011;62539;51.190;6.808;2022-07-30T00:30:56;1.50;;;1.20;;
62616;SDS011;62539;51.190;6.808;2022-07-30T00:33:21;1.30;;;1.20;;
62616;SDS011;62539;51.190;6.808;2022-07-30T00:35:47;1.33;;;1.20;;
62616;SDS011;62539;51.190;6.808;2022-07-30T00:38:12;1.45;;;1.10;;
62616;SDS011;62539;51.190;6.808;2022-07-30T00:40:39;2.05;;;1.33;;
62616;SDS011;62539;51.190;6.808;2022-07-30T00:43:04;1.40;;;1.15;;
62616;SDS011;62539;51.190;6.808;2022-07-30T00:45:30;1.75;;;1.30;;
62616;SDS011;62539;51.190;6.808;2022-07-30T00:47:55;1.40;;;1.30;;
62616;SDS011;62539;51.190;6.808;2022-07-30T00:50:22;2.92;;;1.25;;
62616;SDS011;62539;51.190;6.808;2022-07-30T00:52:48;1.42;;;1.20;;
62616;SDS011;62539;51.190;6.808;2022-07-30T00:55:13;1.60;;;1.40;;
62616;SDS011;62539;51.190;6.808;2022-07-30T00:57:40;1.38;;;1.27;;
62616;SDS011;62539;51.190;6.808;2022-07-30T01:00:09;1.40;;;1.30;;
62616;SDS011;62539;51.190;6.808;2022-07-30T01:02:38;1.40;;;1.30;;
62616;SDS011;62539;51.190;6.808;2022-07-30T01:05:04;3.00;;;1.20;;
62616;SDS011;62539;51.190;6.808;2022-07-30T01:07:31;2.20;;;1.38;;
62616;SDS011;62539;51.190;6.808;2022-07-30T01:09:56;1.50;;;1.40;;
62616;SDS011;62539;51.190;6.808;2022-07-30T01:12:22;1.55;;;1.40;;
62616;SDS011;62539;51.190;6.808;2022-07-30T01:14:51;1.70;;;1.40;;
62616;SDS011;62539;51.190;6.808;2022-07-30T01:17:20;1.58;;;1.40;;
62616;SDS011;62539;51.190;6.808;2022-07-30T01:19:46;1.50;;;1.40;;
62616;SDS011;62539;51.190;6.808;2022-07-30T01:25:03;1.70;;;1.25;;
62616;SDS011;62539;51.190;6.808;2022-07-30T01:27:33;1.70;;;1.10;;
62616;SDS011;62539;51.190;6.808;2022-07-30T01:30:08;1.52;;;1.33;;
62616;SDS011;62539;51.190;6.808;2022-07-30T01:32:35;1.90;;;1.27;;
62616;SDS011;62539;51.190;6.808;2022-07-30T01:37:33;1.45;;;1.35;;
62616;SDS011;62539;51.190;6.808;2022-07-30T01:40:02;1.30;;;1.20;;
62616;SDS011;62539;51.190;6.808;2022-07-30T01:42:29;1.27;;;1.17;;
62616;SDS011;62539;51.190;6.808;2022-07-30T01:44:57;1.67;;;1.40;;
62616;SDS011;62539;51.190;6.808;2022-07-30T01:47:24;3.65;;;1.45;;
62616;SDS011;62539;51.190;6.808;2022-07-30T01:49:53;1.30;;;1.20;;
62616;SDS011;62539;51.190;6.808;2022-07-30T01:52:21;1.83;;;1.30;;
62616;SDS011;62539;51.190;6.808;2022-07-30T01:54:51;1.40;;;1.17;;
62616;SDS011;62539;51.190;6.808;2022-07-30T01:57:20;1.40;;;1.30;;
62616;SDS011;62539;51.190;6.808;2022-07-30T01:59:48;1.70;;;1.40;;
62616;SDS011;62539;51.190;6.808;2022-07-30T02:02:18;1.70;;;1.17;;
62616;SDS011;62539;51.190;6.808;2022-07-30T02:04:44;1.75;;;1.20;;
62616;SDS011;62539;51.190;6.808;2022-07-30T02:07:17;1.48;;;1.10;;
62616;SDS011;62539;51.190;6.808;2022-07-30T02:09:50;1.30;;;1.20;;
62616;SDS011;62539;51.190;6.808;2022-07-30T02:12:23;1.30;;;1.10;;
62616;SDS011;62539;51.190;6.808;2022-07-30T02:15:06;1.33;;;1.23;;
62616;SDS011;62539;51.190;6.808;2022-07-30T02:17:36;2.10;;;1.58;;
62616;SDS011;62539;51.190;6.808;2022-07-30T02:20:08;1.83;;;1.30;;
62616;SDS011;62539;51.190;6.808;2022-07-30T02:22:37;1.92;;;1.27;;
62616;SDS011;62539;51.190;6.808;2022-07-30T02:25:09;2.13;;;1.10;;
62616;SDS011;62539;51.190;6.808;2022-07-30T02:27:47;1.30;;;1.17;;
62616;SDS011;62539;51.190;6.808;2022-07-30T02:30:18;2.53;;;1.30;;
62616;SDS011;62539;51.190;6.808;2022-07-30T02:32:50;2.95;;;1.23;;
62616;SDS011;62539;51.190;6.808;2022-07-30T02:35:22;1.70;;;1.40;;
62616;SDS011;62539;51.190;6.808;2022-07-30T02:37:51;1.40;;;1.20;;
62616;SDS011;62539;51.190;6.808;2022-07-30T02:40:19;1.25;;;1.15;;
62616;SDS011;62539;51.190;6.808;2022-07-30T02:42:48;1.30;;;1.20;;
62616;SDS011;62539;51.190;6.808;2022-07-30T02:45:16;2.28;;;1.40;;
62616;SDS011;62539;51.190;6.808;2022-07-30T02:47:47;1.17;;;1.08;;
62616;SDS011;62539;51.190;6.808;2022-07-30T02:50:20;1.63;;;1.38;;
62616;SDS011;62539;51.190;6.808;2022-07-30T02:52:48;1.20;;;1.10;;
62616;SDS011;62539;51.190;6.808;2022-07-30T02:55:18;1.40;;;1.25;;
62616;SDS011;62539;51.190;6.808;2022-07-30T02:57:46;1.13;;;1.02;;
62616;SDS011;62539;51.190;6.808;2022-07-30T03:00:16;3.25;;;1.10;;
62616;SDS011;62539;51.190;6.808;2022-07-30T03:02:42;1.67;;;1.30;;
62616;SDS011;62539;51.190;6.808;2022-07-30T03:05:09;1.55;;;1.20;;
62616;SDS011;62539;51.190;6.808;2022-07-30T03:07:38;1.48;;;1.38;;
62616;SDS011;62539;51.190;6.808;2022-07-30T03:10:06;1.63;;;1.20;;
62616;SDS011;62539;51.190;6.808;2022-07-30T03:12:33;1.70;;;1.50;;
62616;SDS011;62539;51.190;6.808;2022-07-30T03:15:01;2.35;;;1.13;;
62616;SDS011;62539;51.190;6.808;2022-07-30T03:17:27;1.63;;;1.30;;
62616;SDS011;62539;51.190;6.808;2022-07-30T03:19:58;1.20;;;1.10;;
62616;SDS011;62539;51.190;6.808;2022-07-30T03:22:25;2.05;;;1.55;;
62616;SDS011;62539;51.190;6.808;2022-07-30T03:24:53;1.38;;;1.10;;
62616;SDS011;62539;51.190;6.808;2022-07-30T03:27:22;1.45;;;1.27;;
62616;SDS011;62539;51.190;6.808;2022-07-30T03:29:50;1.80;;;1.23;;
62616;SDS011;62539;51.190;6.808;2022-07-30T03:32:19;1.20;;;1.10;;
62616;SDS011;62539;51.190;6.808;2022-07-30T03:34:46;2.22;;;1.30;;
62616;SDS011;62539;51.190;6.808;2022-07-30T03:37:13;1.30;;;1.20;;
62616;SDS011;62539;51.190;6.808;2022-07-30T03:39:38;1.58;;;1.30;;
62616;SDS011;62539;51.190;6.808;2022-07-30T03:42:06;1.30;;;1.20;;
62616;SDS011;62539;51.190;6.808;2022-07-30T03:44:33;2.08;;;1.25;;
62616;SDS011;62539;51.190;6.808;2022-07-30T03:46:59;2.13;;;1.50;;
62616;SDS011;62539;51.190;6.808;2022-07-30T03:49:28;1.50;;;1.30;;
62616;SDS011;62539;51.190;6.808;2022-07-30T03:51:53;1.52;;;1.20;;
62616;SDS011;62539;51.190;6.808;2022-07-30T03:54:20;6.70;;;1.30;;
62616;SDS011;62539;51.190;6.808;2022-07-30T03:56:47;1.30;;;1.20;;
62616;SDS011;62539;51.190;6.808;2022-07-30T03:59:13;1.20;;;1.10;;
62616;SDS011;62539;51.190;6.808;2022-07-30T04:01:39;1.52;;;1.17;;
62616;SDS011;62539;51.190;6.808;2022-07-30T04:04:06;2.20;;;1.38;;
62616;SDS011;62539;51.190;6.808;2022-07-30T04:06:34;3.25;;;1.10;;
62616;SDS011;62539;51.190;6.808;2022-07-30T04:09:07;1.40;;;1.17;;
62616;SDS011;62539;51.190;6.808;2022-07-30T04:11:35;1.30;;;1.20;;
62616;SDS011;62539;51.190;6.808;2022-07-30T04:14:01;1.20;;;1.10;;
62616;SDS011;62539;51.190;6.808;2022-07-30T04:16:34;1.20;;;1.10;;
62616;SDS011;62539;51.190;6.808;2022-07-30T04:19:35;1.40;;;1.30;;
62616;SDS011;62539;51.190;6.808;2022-07-30T04:22:08;1.67;;;1.30;;
62616;SDS011;62539;51.190;6.808;2022-07-30T04:24:37;1.37;;;1.20;;
62616;SDS011;62539;51.190;6.808;2022-07-30T04:27:06;2.38;;;1.13;;
62616;SDS011;62539;51.190;6.808;2022-07-30T04:29:31;1.35;;;1.20;;
62616;SDS011;62539;51.190;6.808;2022-07-30T04:31:56;1.38;;;1.08;;
62616;SDS011;62539;51.190;6.808;2022-07-30T04:34:22;1.30;;;1.20;;
62616;SDS011;62539;51.190;6.808;2022-07-30T04:36:48;1.23;;;1.10;;
62616;SDS011;62539;51.190;6.808;2022-07-30T04:39:13;1.27;;;1.17;;
62616;SDS011;62539;51.190;6.808;2022-07-30T04:41:38;1.40;;;1.20;;
62616;SDS011;62539;51.190;6.808;2022-07-30T04:44:04;1.30;;;1.20;;
62616;SDS011;62539;51.190;6.808;2022-07-30T04:46:30;1.35;;;1.20;;
62616;SDS011;62539;51.190;6.808;2022-07-30T04:48:56;1.10;;;1.05;;
62616;SDS011;62539;51.190;6.808;2022-07-30T04:51:23;1.55;;;1.20;;
62616;SDS011;62539;51.190;6.808;2022-07-30T04:53:54;2.90;;;1.40;;
62616;SDS011;62539;51.190;6.808;2022-07-30T04:56:23;1.67;;;1.30;;
62616;SDS011;62539;51.190;6.808;2022-07-30T04:58:50;1.98;;;1.25;;
62616;SDS011;62539;51.190;6.808;2022-07-30T05:01:23;2.15;;;1.30;;
62616;SDS011;62539;51.190;6.808;2022-07-30T05:03:55;1.38;;;1.20;;
62616;SDS011;62539;51.190;6.808;2022-07-30T05:06:24;2.03;;;1.30;;
62616;SDS011;62539;51.190;6.808;2022-07-30T05:08:50;1.20;;;1.10;;
62616;SDS011;62539;51.190;6.808;2022-07-30T05:11:16;1.48;;;1.10;;
62616;SDS011;62539;51.190;6.808;2022-07-30T05:13:42;1.40;;;1.20;;
62616;SDS011;62539;51.190;6.808;2022-07-30T05:16:09;3.03;;;1.20;;
62616;SDS011;62539;51.190;6.808;2022-07-30T05:18:35;2.25;;;1.25;;
62616;SDS011;62539;51.190;6.808;2022-07-30T05:21:02;1.20;;;1.10;;
62616;SDS011;62539;51.190;6.808;2022-07-30T05:23:28;1.30;;;1.20;;
62616;SDS011;62539;51.190;6.808;2022-07-30T05:25:54;1.50;;;1.40;;
62616;SDS011;62539;51.190;6.808;2022-07-30T05:28:19;1.90;;;1.42;;
62616;SDS011;62539;51.190;6.808;2022-07-30T05:30:46;1.63;;;1.30;;
62616;SDS011;62539;51.190;6.808;2022-07-30T05:33:12;1.13;;;1.02;;
62616;SDS011;62539;51.190;6.808;2022-07-30T05:35:37;1.20;;;1.05;;
62616;SDS011;62539;51.190;6.808;2022-07-30T05:38:02;1.40;;;1.30;;
62616;SDS011;62539;51.190;6.808;2022-07-30T05:40:28;1.08;;;1.00;;
62616;SDS011;62539;51.190;6.808;2022-07-30T05:42:53;2.47;;;1.30;;
62616;SDS011;62539;51.190;6.808;2022-07-30T05:45:19;1.48;;;1.20;;
62616;SDS011;62539;51.190;6.808;2022-07-30T05:47:44;1.65;;;1.13;;
62616;SDS011;62539;51.190;6.808;2022-07-30T05:50:10;1.60;;;1.20;;
62616;SDS011;62539;51.190;6.808;2022-07-30T05:52:36;1.40;;;1.20;;
62616;SDS011;62539;51.190;6.808;2022-07-30T05:55:02;1.10;;;1.00;;
62616;SDS011;62539;51.190;6.808;2022-07-30T05:57:28;1.27;;;1.10;;
62616;SDS011;62539;51.190;6.808;2022-07-30T05:59:53;1.58;;;1.25;;
62616;SDS011;62539;51.190;6.808;2022-07-30T06:02:19;1.42;;;1.20;;
62616;SDS011;62539;51.190;6.808;2022-07-30T06:04:44;2.72;;;1.10;;
62616;SDS011;62539;51.190;6.808;2022-07-30T06:07:10;2.00;;;1.10;;
62616;SDS011;62539;51.190;6.808;2022-07-30T06:09:35;1.65;;;1.30;;
62616;SDS011;62539;51.190;6.808;2022-07-30T06:12:01;2.45;;;1.40;;
62616;SDS011;62539;51.190;6.808;2022-07-30T06:14:26;1.27;;;1.17;;
62616;SDS011;62539;51.190;6.808;2022-07-30T06:16:52;1.88;;;1.30;;
62616;SDS011;62539;51.190;6.808;2022-07-30T06:19:17;2.13;;;1.30;;
62616;SDS011;62539;51.190;6.808;2022-07-30T06:21:42;1.60;;;1.50;;
62616;SDS011;62539;51.190;6.808;2022-07-30T06:24:08;1.35;;;1.20;;
62616;SDS011;62539;51.190;6.808;2022-07-30T06:26:33;1.45;;;1.20;;
62616;SDS011;62539;51.190;6.808;2022-07-30T06:28:59;1.20;;;1.10;;
62616;SDS011;62539;51.190;6.808;2022-07-30T06:31:24;1.40;;;1.27;;
62616;SDS011;62539;51.190;6.808;2022-07-30T06:33:49;1.40;;;1.20;;
62616;SDS011;62539;51.190;6.808;2022-07-30T06:36:15;1.85;;;1.30;;
62616;SDS011;62539;51.190;6.808;2022-07-30T06:38:40;1.65;;;1.25;;
62616;SDS011;62539;51.190;6.808;2022-07-30T06:41:06;1.52;;;1.38;;
62616;SDS011;62539;51.190;6.808;2022-07-30T06:43:31;1.88;;;1.40;;
62616;SDS011;62539;51.190;6.808;2022-07-30T06:45:57;1.52;;;1.30;;
62616;SDS011;62539;51.190;6.808;2022-07-30T06:48:23;1.20;;;1.10;;
62616;SDS011;62539;51.190;6.808;2022-07-30T06:50:48;1.20;;;1.10;;
62616;SDS011;62539;51.190;6.808;2022-07-30T06:53:13;1.40;;;1.00;;
62616;SDS011;62539;51.190;6.808;2022-07-30T06:55:39;1.20;;;1.10;;
62616;SDS011;62539;51.190;6.808;2022-07-30T06:58:04;1.48;;;1.20;;
62616;SDS011;62539;51.190;6.808;2022-07-30T07:00:30;1.27;;;1.17;;
62616;SDS011;62539;51.190;6.808;2022-07-30T07:02:55;1.17;;;1.08;;
62616;SDS011;62539;51.190;6.808;2022-07-30T07:05:20;1.73;;;1.20;;
62616;SDS011;62539;51.190;6.808;2022-07-30T07:07:47;2.63;;;1.40;;
62616;SDS011;62539;51.190;6.808;2022-07-30T07:10:12;1.20;;;1.10;;
62616;SDS011;62539;51.190;6.808;2022-07-30T07:12:38;1.85;;;1.13;;
62616;SDS011;62539;51.190;6.808;2022-07-30T07:15:04;1.27;;;1.17;;
62616;SDS011;62539;51.190;6.808;2022-07-30T07:17:30;1.23;;;1.13;;
62616;SDS011;62539;51.190;6.808;2022-07-30T07:19:55;1.25;;;1.10;;
62616;SDS011;62539;51.190;6.808;2022-07-30T07:22:21;1.38;;;1.20;;
62616;SDS011;62539;51.190;6.808;2022-07-30T07:24:47;2.90;;;1.50;;
62616;SDS011;62539;51.190;6.808;2022-07-30T07:27:12;1.88;;;1.20;;
62616;SDS011;62539;51.190;6.808;2022-07-30T07:29:39;1.70;;;1.25;;
62616;SDS011;62539;51.190;6.808;2022-07-30T07:32:05;1.35;;;1.25;;
62616;SDS011;62539;51.190;6.808;2022-07-30T07:34:30;2.75;;;1.35;;
62616;SDS011;62539;51.190;6.808;2022-07-30T07:36:56;1.27;;;1.17;;
62616;SDS011;62539;51.190;6.808;2022-07-30T07:39:21;1.42;;;1.33;;
62616;SDS011;62539;51.190;6.808;2022-07-30T07:41:46;1.30;;;1.20;;
62616;SDS011;62539;51.190;6.808;2022-07-30T07:44:12;1.20;;;1.10;;
62616;SDS011;62539;51.190;6.808;2022-07-30T07:46:37;1.52;;;1.10;;
62616;SDS011;62539;51.190;6.808;2022-07-30T07:49:03;1.70;;;1.25;;
62616;SDS011;62539;51.190;6.808;2022-07-30T07:51:28;1.45;;;1.20;;
62616;SDS011;62539;51.190;6.808;2022-07-30T07:53:54;1.60;;;1.33;;
62616;SDS011;62539;51.190;6.808;2022-07-30T07:56:19;1.48;;;1.30;;
62616;SDS011;62539;51.190;6.808;2022-07-30T07:58:45;1.98;;;1.40;;
62616;SDS011;62539;51.190;6.808;2022-07-30T08:01:11;2.05;;;1.50;;
62616;SDS011;62539;51.190;6.808;2022-07-30T08:03:36;2.88;;;1.38;;
62616;SDS011;62539;51.190;6.808;2022-07-30T08:06:02;2.13;;;1.27;;
62616;SDS011;62539;51.190;6.808;2022-07-30T08:08:27;3.58;;;1.80;;
62616;SDS011;62539;51.190;6.808;2022-07-30T08:10:53;2.72;;;1.83;;
62616;SDS011;62539;51.190;6.808;2022-07-30T08:13:18;2.00;;;1.80;;
62616;SDS011;62539;51.190;6.808;2022-07-30T08:15:43;3.75;;;2.00;;
62616;SDS011;62539;51.190;6.808;2022-07-30T08:18:09;2.80;;;1.70;;
62616;SDS011;62539;51.190;6.808;2022-07-30T08:20:35;2.55;;;1.90;;
62616;SDS011;62539;51.190;6.808;2022-07-30T08:23:02;3.00;;;2.05;;
62616;SDS011;62539;51.190;6.808;2022-07-30T08:25:28;5.10;;;1.90;;
62616;SDS011;62539;51.190;6.808;2022-07-30T08:27:54;3.38;;;1.73;;
62616;SDS011;62539;51.190;6.808;2022-07-30T08:30:19;4.70;;;1.60;;
62616;SDS011;62539;51.190;6.808;2022-07-30T08:32:44;2.70;;;1.80;;
62616;SDS011;62539;51.190;6.808;2022-07-30T08:35:10;3.35;;;1.83;;
62616;SDS011;62539;51.190;6.808;2022-07-30T08:37:36;2.40;;;1.77;;
62616;SDS011;62539;51.190;6.808;2022-07-30T08:40:04;3.05;;;1.92;;
62616;SDS011;62539;51.190;6.808;2022-07-30T08:42:33;2.17;;;1.75;;
62616;SDS011;62539;51.190;6.808;2022-07-30T08:44:59;2.80;;;1.83;;
62616;SDS011;62539;51.190;6.808;2022-07-30T08:47:27;3.05;;;1.73;;
62616;SDS011;62539;51.190;6.808;2022-07-30T08:49:57;3.63;;;2.10;;
62616;SDS011;62539;51.190;6.808;2022-07-30T08:52:28;3.10;;;1.98;;
62616;SDS011;62539;51.190;6.808;2022-07-30T08:54:57;2.53;;;1.70;;
62616;SDS011;62539;51.190;6.808;2022-07-30T08:57:24;3.45;;;1.90;;
62616;SDS011;62539;51.190;6.808;2022-07-30T08:59:55;4.18;;;1.90;;
62616;SDS011;62539;51.190;6.808;2022-07-30T09:02:22;4.45;;;2.00;;
62616;SDS011;62539;51.190;6.808;2022-07-30T09:04:48;3.75;;;1.70;;
62616;SDS011;62539;51.190;6.808;2022-07-30T09:07:13;4.22;;;2.10;;
62616;SDS011;62539;51.190;6.808;2022-07-30T09:09:39;3.20;;;2.20;;
62616;SDS011;62539;51.190;6.808;2022-07-30T09:12:30;3.97;;;1.80;;
62616;SDS011;62539;51.190;6.808;2022-07-30T09:15:04;3.72;;;1.90;;
62616;SDS011;62539;51.190;6.808;2022-07-30T09:17:54;5.50;;;2.13;;
62616;SDS011;62539;51.190;6.808;2022-07-30T09:20:27;3.55;;;1.80;;
62616;SDS011;62539;51.190;6.808;2022-07-30T09:23:00;3.95;;;2.15;;
62616;SDS011;62539;51.190;6.808;2022-07-30T09:25:47;2.78;;;2.08;;
62616;SDS011;62539;51.190;6.808;2022-07-30T09:28:14;3.58;;;2.03;;
62616;SDS011;62539;51.190;6.808;2022-07-30T09:30:43;3.42;;;1.95;;
62616;SDS011;62539;51.190;6.808;2022-07-30T09:33:32;5.65;;;2.08;;
62616;SDS011;62539;51.190;6.808;2022-07-30T09:35:59;6.80;;;3.00;;
62616;SDS011;62539;51.190;6.808;2022-07-30T09:38:25;13.50;;;4.18;;
62616;SDS011;62539;51.190;6.808;2022-07-30T09:40:55;8.07;;;3.45;;
62616;SDS011;62539;51.190;6.808;2022-07-30T09:43:22;9.25;;;3.20;;
62616;SDS011;62539;51.190;6.808;2022-07-30T09:45:49;11.13;;;3.55;;
62616;SDS011;62539;51.190;6.808;2022-07-30T09:48:22;8.95;;;3.00;;
62616;SDS011;62539;51.190;6.808;2022-07-30T09:50:52;8.05;;;2.92;;
62616;SDS011;62539;51.190;6.808;2022-07-30T09:53:19;11.40;;;4.00;;
62616;SDS011;62539;51.190;6.808;2022-07-30T09:55:48;6.70;;;3.30;;
62616;SDS011;62539;51.190;6.808;2022-07-30T09:58:14;7.82;;;2.92;;
62616;SDS011;62539;51.190;6.808;2022-07-30T10:00:40;9.40;;;3.53;;
62616;SDS011;62539;51.190;6.808;2022-07-30T10:03:15;12.18;;;4.05;;
62616;SDS011;62539;51.190;6.808;2022-07-30T10:05:54;5.47;;;2.85;;
62616;SDS011;62539;51.190;6.808;2022-07-30T10:11:16;12.27;;;3.40;;
62616;SDS011;62539;51.190;6.808;2022-07-30T10:13:46;7.93;;;2.83;;
62616;SDS011;62539;51.190;6.808;2022-07-30T10:16:17;5.72;;;2.60;;
62616;SDS011;62539;51.190;6.808;2022-07-30T10:18:44;8.88;;;2.55;;
62616;SDS011;62539;51.190;6.808;2022-07-30T10:21:10;6.75;;;3.08;;
62616;SDS011;62539;51.190;6.808;2022-07-30T10:23:36;7.85;;;3.03;;
62616;SDS011;62539;51.190;6.808;2022-07-30T10:26:03;5.65;;;2.70;;
62616;SDS011;62539;51.190;6.808;2022-07-30T10:28:30;4.85;;;2.10;;
62616;SDS011;62539;51.190;6.808;2022-07-30T10:30:56;8.05;;;2.55;;
62616;SDS011;62539;51.190;6.808;2022-07-30T10:33:23;13.07;;;2.85;;
62616;SDS011;62539;51.190;6.808;2022-07-30T10:35:55;8.60;;;2.80;;
62616;SDS011;62539;51.190;6.808;2022-07-30T10:38:22;5.55;;;2.50;;
62616;SDS011;62539;51.190;6.808;2022-07-30T10:40:55;12.05;;;3.00;;
62616;SDS011;62539;51.190;6.808;2022-07-30T10:44:11;6.40;;;2.63;;
62616;SDS011;62539;51.190;6.808;2022-07-30T10:49:18;3.85;;;1.98;;
62616;SDS011;62539;51.190;6.808;2022-07-30T10:51:47;8.35;;;2.17;;
62616;SDS011;62539;51.190;6.808;2022-07-30T11:02:25;3.67;;;1.98;;
62616;SDS011;62539;51.190;6.808;2022-07-30T11:07:42;4.50;;;1.73;;
62616;SDS011;62539;51.190;6.808;2022-07-30T11:10:33;8.70;;;1.73;;
62616;SDS011;62539;51.190;6.808;2022-07-30T11:13:03;4.05;;;2.03;;
62616;SDS011;62539;51.190;6.808;2022-07-30T11:18:22;7.05;;;2.20;;
62616;SDS011;62539;51.190;6.808;2022-07-30T11:23:44;5.50;;;1.80;;
62616;SDS011;62539;51.190;6.808;2022-07-30T11:29:05;4.93;;;2.15;;
62616;SDS011;62539;51.190;6.808;2022-07-30T11:31:33;5.72;;;2.40;;
62616;SDS011;62539;51.190;6.808;2022-07-30T11:40:04;3.58;;;2.05;;
62616;SDS011;62539;51.190;6.808;2022-07-30T11:42:32;5.40;;;1.90;;
62616;SDS011;62539;51.190;6.808;2022-07-30T11:50:17;5.13;;;1.67;;
62616;SDS011;62539;51.190;6.808;2022-07-30T11:52:49;11.95;;;1.80;;
62616;SDS011;62539;51.190;6.808;2022-07-30T11:55:45;6.05;;;1.77;;
62616;SDS011;62539;51.190;6.808;2022-07-30T11:58:24;4.30;;;1.60;;
62616;SDS011;62539;51.190;6.808;2022-07-30T12:01:06;8.40;;;1.70;;
62616;SDS011;62539;51.190;6.808;2022-07-30T12:03:41;13.23;;;1.85;;
62616;SDS011;62539;51.190;6.808;2022-07-30T12:06:11;6.80;;;1.77;;
62616;SDS011;62539;51.190;6.808;2022-07-30T12:08:47;11.35;;;2.17;;
62616;SDS011;62539;51.190;6.808;2022-07-30T12:11:17;6.93;;;1.77;;
62616;SDS011;62539;51.190;6.808;2022-07-30T12:13:53;3.85;;;1.90;;
62616;SDS011;62539;51.190;6.808;2022-07-30T12:16:23;3.60;;;1.80;;
62616;SDS011;62539;51.190;6.808;2022-07-30T12:18:49;6.93;;;1.85;;
62616;SDS011;62539;51.190;6.808;2022-07-30T12:21:15;4.40;;;2.00;;
62616;SDS011;62539;51.190;6.808;2022-07-30T12:23:41;7.10;;;2.20;;
62616;SDS011;62539;51.190;6.808;2022-07-30T12:26:20;4.78;;;1.90;;
62616;SDS011;62539;51.190;6.808;2022-07-30T12:28:49;5.45;;;1.80;;
62616;SDS011;62539;51.190;6.808;2022-07-30T12:31:15;7.03;;;1.80;;
62616;SDS011;62539;51.190;6.808;2022-07-30T12:33:42;3.78;;;1.90;;
62616;SDS011;62539;51.190;6.808;2022-07-30T12:36:07;5.22;;;1.92;;
62616;SDS011;62539;51.190;6.808;2022-07-30T12:38:44;10.57;;;2.15;;
62616;SDS011;62539;51.190;6.808;2022-07-30T12:41:12;6.28;;;1.80;;
62616;SDS011;62539;51.190;6.808;2022-07-30T12:43:45;6.85;;;1.73;;
62616;SDS011;62539;51.190;6.808;2022-07-30T12:46:20;6.63;;;1.80;;
62616;SDS011;62539;51.190;6.808;2022-07-30T12:48:49;3.00;;;1.70;;
62616;SDS011;62539;51.190;6.808;2022-07-30T12:51:22;2.22;;;1.40;;
62616;SDS011;62539;51.190;6.808;2022-07-30T12:53:51;3.17;;;1.60;;
62616;SDS011;62539;51.190;6.808;2022-07-30T12:56:21;4.45;;;1.77;;
62616;SDS011;62539;51.190;6.808;2022-07-30T12:58:51;6.18;;;1.80;;
62616;SDS011;62539;51.190;6.808;2022-07-30T13:01:18;5.53;;;2.17;;
62616;SDS011;62539;51.190;6.808;2022-07-30T13:03:43;3.60;;;1.70;;
62616;SDS011;62539;51.190;6.808;2022-07-30T13:06:19;4.22;;;1.42;;
62616;SDS011;62539;51.190;6.808;2022-07-30T13:08:53;5.43;;;1.60;;
62616;SDS011;62539;51.190;6.808;2022-07-30T13:11:22;2.95;;;1.45;;
62616;SDS011;62539;51.190;6.808;2022-07-30T13:13:51;4.68;;;1.55;;
62616;SDS011;62539;51.190;6.808;2022-07-30T13:16:18;7.65;;;1.60;;
62616;SDS011;62539;51.190;6.808;2022-07-30T13:18:45;4.63;;;1.50;;
62616;SDS011;62539;51.190;6.808;2022-07-30T13:21:11;4.75;;;1.55;;
62616;SDS011;62539;51.190;6.808;2022-07-30T13:23:37;7.05;;;1.40;;
62616;SDS011;62539;51.190;6.808;2022-07-30T13:26:04;2.50;;;1.40;;
62616;SDS011;62539;51.190;6.808;2022-07-30T13:28:32;1.92;;;1.33;;
62616;SDS011;62539;51.190;6.808;2022-07-30T13:30:59;3.00;;;1.42;;
62616;SDS011;62539;51.190;6.808;2022-07-30T13:33:25;4.00;;;1.45;;
62616;SDS011;62539;51.190;6.808;2022-07-30T13:35:51;6.88;;;1.40;;
62616;SDS011;62539;51.190;6.808;2022-07-30T13:38:16;5.90;;;1.23;;
62616;SDS011;62539;51.190;6.808;2022-07-30T13:40:42;4.72;;;1.50;;
62616;SDS011;62539;51.190;6.808;2022-07-30T13:43:08;4.40;;;1.35;;
62616;SDS011;62539;51.190;6.808;2022-07-30T13:45:33;2.42;;;1.15;;
62616;SDS011;62539;51.190;6.808;2022-07-30T13:48:00;4.40;;;1.75;;
62616;SDS011;62539;51.190;6.808;2022-07-30T13:50:25;5.60;;;1.20;;
62616;SDS011;62539;51.190;6.808;2022-07-30T13:52:51;2.75;;;1.08;;
62616;SDS011;62539;51.190;6.808;2022-07-30T13:55:16;6.18;;;1.40;;
62616;SDS011;62539;51.190;6.808;2022-07-30T13:57:42;3.28;;;1.13;;
62616;SDS011;62539;51.190;6.808;2022-07-30T14:00:07;3.03;;;1.20;;
62616;SDS011;62539;51.190;6.808;2022-07-30T14:02:34;3.15;;;1.27;;
62616;SDS011;62539;51.190;6.808;2022-07-30T14:05:00;2.85;;;1.27;;
62616;SDS011;62539;51.190;6.808;2022-07-30T14:07:31;3.80;;;1.15;;
62616;SDS011;62539;51.190;6.808;2022-07-30T14:10:04;6.05;;;1.23;;
62616;SDS011;62539;51.190;6.808;2022-07-30T14:12:31;3.13;;;1.20;;
62616;SDS011;62539;51.190;6.808;2022-07-30T14:15:00;7.78;;;1.65;;
62616;SDS011;62539;51.190;6.808;2022-07-30T14:17:25;3.17;;;1.30;;
62616;SDS011;62539;51.190;6.808;2022-07-30T14:19:51;2.88;;;1.20;;
62616;SDS011;62539;51.190;6.808;2022-07-30T14:22:18;1.48;;;1.00;;
62616;SDS011;62539;51.190;6.808;2022-07-30T14:24:45;2.88;;;1.10;;
62616;SDS011;62539;51.190;6.808;2022-07-30T14:27:11;2.42;;;1.20;;
62616;SDS011;62539;51.190;6.808;2022-07-30T14:29:36;6.43;;;1.40;;
62616;SDS011;62539;51.190;6.808;2022-07-30T14:32:02;1.73;;;1.10;;
62616;SDS011;62539;51.190;6.808;2022-07-30T14:34:28;7.03;;;1.23;;
62616;SDS011;62539;51.190;6.808;2022-07-30T14:36:53;2.63;;;1.00;;
62616;SDS011;62539;51.190;6.808;2022-07-30T14:39:19;4.50;;;1.00;;
62616;SDS011;62539;51.190;6.808;2022-07-30T14:41:44;2.30;;;1.20;;
62616;SDS011;62539;51.190;6.808;2022-07-30T14:44:10;3.38;;;1.13;;
62616;SDS011;62539;51.190;6.808;2022-07-30T14:46:37;11.68;;;2.65;;
62616;SDS011;62539;51.190;6.808;2022-07-30T14:49:06;7.07;;;1.20;;
62616;SDS011;62539;51.190;6.808;2022-07-30T14:51:32;2.35;;;0.95;;
62616;SDS011;62539;51.190;6.808;2022-07-30T14:53:58;2.67;;;1.27;;
62616;SDS011;62539;51.190;6.808;2022-07-30T14:56:24;3.55;;;1.20;;
62616;SDS011;62539;51.190;6.808;2022-07-30T14:58:49;2.97;;;1.10;;
62616;SDS011;62539;51.190;6.808;2022-07-30T15:01:15;3.25;;;1.10;;
62616;SDS011;62539;51.190;6.808;2022-07-30T15:03:41;1.60;;;1.10;;
62616;SDS011;62539;51.190;6.808;2022-07-30T15:06:06;11.40;;;1.20;;
62616;SDS011;62539;51.190;6.808;2022-07-30T15:08:33;2.85;;;1.00;;
62616;SDS011;62539;51.190;6.808;2022-07-30T15:10:59;4.10;;;1.10;;
62616;SDS011;62539;51.190;6.808;2022-07-30T15:13:25;3.83;;;1.00;;
62616;SDS011;62539;51.190;6.808;2022-07-30T15:15:51;4.10;;;1.00;;
62616;SDS011;62539;51.190;6.808;2022-07-30T15:18:16;2.80;;;0.98;;
62616;SDS011;62539;51.190;6.808;2022-07-30T15:20:41;4.93;;;1.30;;
62616;SDS011;62539;51.190;6.808;2022-07-30T15:23:07;3.92;;;1.05;;
62616;SDS011;62539;51.190;6.808;2022-07-30T15:25:32;4.43;;;1.20;;
62616;SDS011;62539;51.190;6.808;2022-07-30T15:27:58;2.75;;;1.20;;
62616;SDS011;62539;51.190;6.808;2022-07-30T15:30:23;6.72;;;1.20;;
62616;SDS011;62539;51.190;6.808;2022-07-30T15:32:50;5.05;;;1.33;;
62616;SDS011;62539;51.190;6.808;2022-07-30T15:35:15;2.70;;;1.20;;